Time;durP1;ratioP1;P1;durP2;ratioP2;P2;SDS_P1;SDS_P2;PMS_P1;PMS_P2;Temp;Humidity;BMP_temperature;BMP_pressure;BME280_temperature;BME280_humidity;BME280_pressure;Samples;Min_cycle;Max_cycle;Signal;HPM_P1;HPM_P2
2021/09/15 00:01:08;;;;;;;10.45;7.47;;;23.30;72.90;;;;;;5157666;28;20526;-73
2021/09/15 00:03:41;;;;;;;9.90;7.70;;;23.30;72.90;;;;;;5177289;28;20058;-74
2021/09/15 00:06:13;;;;;;;9.35;7.20;;;23.30;72.90;;;;;;5175546;28;20076;-73
2021/09/15 00:08:45;;;;;;;8.80;7.15;;;23.30;72.90;;;;;;5176174;28;20631;-73
2021/09/15 00:11:19;;;;;;;11.35;8.05;;;23.30;73.00;;;;;;5150972;28;20050;-74
2021/09/15 00:13:52;;;;;;;7.80;7.00;;;23.30;72.90;;;;;;5176292;28;20511;-72
2021/09/15 00:16:27;;;;;;;8.70;7.22;;;23.20;72.80;;;;;;5175172;28;20061;-73
2021/09/15 00:19:00;;;;;;;10.07;6.95;;;23.30;72.90;;;;;;5174618;28;20056;-72
2021/09/15 00:21:32;;;;;;;7.43;6.68;;;23.20;72.90;;;;;;5157476;28;20403;-73
2021/09/15 00:24:05;;;;;;;14.77;7.72;;;23.20;72.90;;;;;;5172479;28;20049;-74
2021/09/15 00:26:37;;;;;;;7.90;7.10;;;23.20;72.90;;;;;;5175038;28;20053;-74
2021/09/15 00:29:16;;;;;;;9.38;7.72;;;23.20;73.00;;;;;;5175540;28;20061;-74
2021/09/15 00:31:48;;;;;;;10.73;7.28;;;23.20;73.00;;;;;;5175215;28;20046;-74
2021/09/15 00:34:22;;;;;;;8.40;7.13;;;23.20;73.00;;;;;;5174221;28;20058;-74
2021/09/15 00:36:54;;;;;;;10.52;7.35;;;23.20;73.10;;;;;;5175619;28;20323;-74
2021/09/15 00:39:26;;;;;;;11.10;7.28;;;23.20;73.00;;;;;;5155671;28;20042;-73
2021/09/15 00:41:59;;;;;;;11.30;7.50;;;23.20;73.00;;;;;;5172686;28;20060;-73
2021/09/15 00:44:31;;;;;;;12.15;7.63;;;23.20;72.90;;;;;;5176259;28;20057;-73
2021/09/15 00:47:03;;;;;;;9.52;7.18;;;23.20;72.90;;;;;;5156627;28;20048;-73
2021/09/15 00:49:36;;;;;;;8.80;7.20;;;23.20;72.90;;;;;;5173795;28;20061;-73
2021/09/15 00:52:08;;;;;;;11.05;6.90;;;23.20;72.90;;;;;;5159844;28;20046;-73
2021/09/15 00:54:41;;;;;;;10.10;6.95;;;23.20;72.90;;;;;;5171903;28;20056;-74
2021/09/15 00:57:14;;;;;;;10.63;7.35;;;23.10;72.80;;;;;;5157137;28;20437;-73
2021/09/15 00:59:48;;;;;;;7.65;6.75;;;23.10;72.80;;;;;;5157308;28;20057;-73
2021/09/15 01:02:20;;;;;;;8.70;6.73;;;23.10;72.80;;;;;;5156189;28;20041;-72
2021/09/15 01:05:07;;;;;;;10.20;6.93;;;23.10;72.80;;;;;;5159499;28;20042;-73
2021/09/15 01:07:42;;;;;;;10.77;6.60;;;23.10;73.30;;;;;;5172236;28;20046;-73
2021/09/15 01:10:16;;;;;;;9.05;6.75;;;23.10;72.70;;;;;;5133721;28;20491;-72
2021/09/15 01:13:08;;;;;;;10.85;6.82;;;23.10;72.60;;;;;;5158527;28;20054;-72
2021/09/15 01:15:45;;;;;;;10.07;7.38;;;23.10;72.60;;;;;;5175071;28;20050;-73
2021/09/15 01:18:27;;;;;;;7.88;6.55;;;23.10;72.50;;;;;;5173696;28;20425;-73
2021/09/15 01:21:21;;;;;;;8.82;7.00;;;23.10;72.50;;;;;;5175921;28;20061;-73
2021/09/15 01:24:12;;;;;;;9.20;6.85;;;23.00;72.40;;;;;;5176655;28;20491;-72
2021/09/15 01:26:51;;;;;;;9.57;6.53;;;23.00;72.40;;;;;;5174895;28;20511;-73
2021/09/15 01:29:43;;;;;;;10.55;6.72;;;23.00;72.40;;;;;;5155504;28;20042;-73
2021/09/15 01:32:28;;;;;;;8.13;6.75;;;23.00;72.50;;;;;;5158693;28;20679;-73
2021/09/15 01:35:02;;;;;;;10.18;6.80;;;23.00;72.50;;;;;;5154312;28;20050;-73
2021/09/15 01:37:39;;;;;;;10.07;7.13;;;23.00;72.50;;;;;;5155550;28;20046;-73
2021/09/15 01:40:12;;;;;;;7.40;6.65;;;23.00;72.50;;;;;;5157116;28;20507;-72
2021/09/15 01:42:44;;;;;;;9.07;6.63;;;23.00;72.50;;;;;;5171641;28;20530;-73
2021/09/15 01:45:17;;;;;;;7.22;6.35;;;23.00;72.50;;;;;;5174828;28;20042;-72
2021/09/15 01:47:49;;;;;;;7.95;6.50;;;23.00;72.50;;;;;;5137627;28;20506;-73
2021/09/15 01:50:22;;;;;;;8.63;6.60;;;23.00;72.50;;;;;;5156696;28;20050;-74
2021/09/15 01:52:55;;;;;;;10.73;6.85;;;23.00;72.50;;;;;;5157744;28;20131;-73
2021/09/15 01:55:33;;;;;;;9.68;7.38;;;23.00;72.40;;;;;;5137812;28;20061;-72
2021/09/15 01:58:25;;;;;;;9.82;6.75;;;23.00;72.40;;;;;;5156956;28;20526;-73
2021/09/15 02:01:16;;;;;;;10.80;6.88;;;22.90;72.30;;;;;;5175126;28;20174;-73
2021/09/15 02:04:01;;;;;;;12.02;6.22;;;23.00;72.30;;;;;;5180701;28;20060;-74
2021/09/15 02:06:49;;;;;;;9.73;6.40;;;23.00;72.30;;;;;;5162481;28;20415;-73
2021/09/15 02:09:37;;;;;;;8.85;6.63;;;23.00;72.20;;;;;;5179722;28;20057;-74
2021/09/15 02:12:28;;;;;;;10.55;6.80;;;22.90;72.10;;;;;;5158003;28;20057;-74
2021/09/15 02:15:00;;;;;;;9.98;7.18;;;23.00;72.10;;;;;;5174821;28;20055;-73
2021/09/15 02:17:33;;;;;;;8.63;6.80;;;22.90;72.00;;;;;;5173184;28;20054;-73
2021/09/15 02:20:13;;;;;;;10.25;6.15;;;22.90;71.90;;;;;;5157990;28;20054;-73
2021/09/15 02:22:59;;;;;;;9.90;6.82;;;22.90;72.00;;;;;;5157687;28;20045;-74
2021/09/15 02:25:44;;;;;;;8.43;6.32;;;23.00;72.00;;;;;;5142394;28;20041;-74
2021/09/15 02:28:25;;;;;;;8.35;7.13;;;22.90;71.80;;;;;;5160270;28;20060;-73
2021/09/15 02:31:17;;;;;;;7.55;6.40;;;22.90;71.70;;;;;;5177564;28;20064;-74
2021/09/15 02:34:10;;;;;;;;;;;22.90;71.80;;;;;;5161328;28;20058;-74
2021/09/15 02:36:59;;;;;;;9.93;7.05;;;22.90;72.00;;;;;;5159474;28;20268;-73
2021/09/15 02:39:50;;;;;;;9.73;7.25;;;22.90;71.90;;;;;;5162216;28;20042;-74
2021/09/15 02:42:31;;;;;;;10.57;6.68;;;22.90;71.80;;;;;;5159306;28;20534;-74
2021/09/15 02:45:12;;;;;;;8.85;7.05;;;22.90;71.80;;;;;;5176064;28;20506;-74
2021/09/15 02:48:10;;;;;;;10.82;6.90;;;22.90;71.70;;;;;;5174998;28;20554;-74
2021/09/15 02:51:06;;;;;;;8.68;6.40;;;22.80;71.60;;;;;;5160788;28;20418;-74
2021/09/15 02:53:53;;;;;;;9.48;6.55;;;22.80;71.50;;;;;;5151734;28;20054;-72
2021/09/15 02:56:42;;;;;;;10.38;6.30;;;22.80;71.50;;;;;;5159223;28;20049;-74
2021/09/15 02:59:24;;;;;;;13.35;6.40;;;22.80;71.50;;;;;;5157351;28;20061;-74
2021/09/15 03:02:13;;;;;;;9.98;6.60;;;22.80;71.40;;;;;;5169462;28;20049;-75
2021/09/15 03:05:00;;;;;;;8.43;6.25;;;22.80;71.40;;;;;;5159920;28;20042;-74
2021/09/15 03:07:42;;;;;;;8.88;6.20;;;22.80;71.50;;;;;;5161475;28;20041;-74
2021/09/15 03:10:15;;;;;;;11.18;6.65;;;22.80;71.40;;;;;;5176130;28;20061;-75
2021/09/15 03:12:47;;;;;;;7.18;6.40;;;22.80;71.40;;;;;;5178354;28;20046;-74
2021/09/15 03:15:22;;;;;;;9.75;6.40;;;22.80;71.40;;;;;;5170920;28;21002;-74
2021/09/15 03:17:55;;;;;;;7.95;6.60;;;22.80;71.30;;;;;;5156619;28;20057;-74
2021/09/15 03:20:29;;;;;;;9.10;5.63;;;22.80;71.30;;;;;;5148800;28;20046;-74
2021/09/15 03:23:02;;;;;;;9.65;7.20;;;22.80;71.40;;;;;;5155286;28;20298;-74
2021/09/15 03:25:34;;;;;;;8.40;6.68;;;22.80;71.40;;;;;;5156597;28;20633;-74
2021/09/15 03:28:07;;;;;;;8.77;6.75;;;22.80;71.40;;;;;;5154919;28;20049;-74
2021/09/15 03:30:40;;;;;;;8.18;6.88;;;22.80;71.40;;;;;;5157102;28;20046;-73
2021/09/15 03:33:13;;;;;;;14.65;6.90;;;22.80;71.50;;;;;;5157103;28;20041;-74
2021/09/15 03:35:45;;;;;;;11.93;6.63;;;22.70;71.40;;;;;;5158362;28;20415;-74
2021/09/15 03:38:18;;;;;;;10.43;7.13;;;22.70;71.40;;;;;;5161358;28;20312;-73
2021/09/15 03:40:51;;;;;;;10.00;7.18;;;22.70;71.40;;;;;;5140103;28;20707;-74
2021/09/15 03:43:23;;;;;;;11.75;7.15;;;22.80;71.60;;;;;;5175018;28;20355;-74
2021/09/15 03:45:56;;;;;;;9.95;7.50;;;22.70;71.60;;;;;;5157297;28;20049;-73
2021/09/15 03:48:30;;;;;;;11.38;6.85;;;22.70;71.50;;;;;;5157971;28;20045;-73
2021/09/15 03:51:02;;;;;;;9.60;7.45;;;22.70;71.60;;;;;;5170572;28;20269;-73
2021/09/15 03:53:35;;;;;;;9.77;7.65;;;22.70;71.60;;;;;;5152845;28;20050;-73
2021/09/15 03:56:07;;;;;;;8.00;6.85;;;22.70;71.60;;;;;;5154105;28;20041;-75
2021/09/15 03:58:41;;;;;;;10.95;7.70;;;22.70;71.70;;;;;;5140307;28;20050;-73
2021/09/15 04:01:14;;;;;;;11.57;7.23;;;22.70;71.70;;;;;;5174447;28;20046;-73
2021/09/15 04:03:47;;;;;;;8.95;7.35;;;22.70;71.70;;;;;;5153914;28;20511;-74
2021/09/15 04:06:19;;;;;;;9.52;7.47;;;22.70;71.70;;;;;;5157023;28;20057;-72
2021/09/15 04:08:52;;;;;;;9.60;6.97;;;22.70;72.00;;;;;;5155316;28;20393;-70
2021/09/15 04:11:25;;;;;;;8.60;6.60;;;22.70;71.80;;;;;;5155842;28;20663;-73
2021/09/15 04:13:57;;;;;;;12.73;7.18;;;22.70;71.90;;;;;;5141397;28;20038;-73
2021/09/15 04:16:30;;;;;;;7.03;5.97;;;22.70;72.00;;;;;;5177444;28;20060;-73
2021/09/15 04:19:04;;;;;;;8.80;7.28;;;22.70;72.10;;;;;;5162823;28;20056;-73
2021/09/15 04:21:39;;;;;;;8.18;6.85;;;22.70;72.10;;;;;;5162337;28;20050;-73
2021/09/15 04:32:16;;;;;;;12.40;7.18;;;22.70;72.40;;;;;;5171502;28;20061;-74
2021/09/15 04:34:49;;;;;;;10.27;6.63;;;22.80;72.40;;;;;;5153561;28;20053;-73
2021/09/15 04:37:21;;;;;;;10.45;6.32;;;22.70;72.40;;;;;;5153898;28;20050;-71
2021/09/15 04:39:54;;;;;;;9.50;6.47;;;22.80;72.50;;;;;;5137182;28;20057;-71
2021/09/15 04:42:26;;;;;;;10.18;6.50;;;22.80;72.50;;;;;;5152560;28;20050;-72
2021/09/15 04:44:59;;;;;;;9.43;7.25;;;22.80;72.60;;;;;;5138499;28;20057;-70
2021/09/15 04:47:31;;;;;;;9.82;6.22;;;22.80;72.60;;;;;;5143516;28;20050;-70
2021/09/15 04:50:04;;;;;;;10.38;6.50;;;22.80;72.60;;;;;;5140757;28;20057;-69
2021/09/15 04:52:37;;;;;;;14.50;6.90;;;22.80;72.70;;;;;;5131582;28;20105;-69
2021/09/15 04:55:10;;;;;;;13.13;6.93;;;22.80;72.70;;;;;;5131462;28;20529;-69
2021/09/15 04:57:43;;;;;;;12.80;6.90;;;22.80;72.80;;;;;;5134795;28;20050;-69
2021/09/15 05:00:16;;;;;;;11.13;6.60;;;22.80;72.80;;;;;;5128178;28;20049;-68
2021/09/15 05:02:59;;;;;;;8.90;7.13;;;22.80;72.80;;;;;;5135124;28;20081;-68
2021/09/15 05:05:40;;;;;;;9.52;7.47;;;22.80;72.00;;;;;;5155432;28;20496;-69
2021/09/15 05:08:17;;;;;;;12.00;7.20;;;22.70;71.70;;;;;;5132638;28;20042;-68
2021/09/15 05:10:51;;;;;;;;;;;22.50;72.20;;;;;;5145908;28;20054;-68
2021/09/15 05:13:27;;;;;;;13.50;7.57;;;22.50;72.30;;;;;;5146905;28;19925;-69
2021/09/15 05:16:00;;;;;;;11.63;7.07;;;22.40;72.00;;;;;;5136040;28;20069;-68
2021/09/15 05:18:32;;;;;;;11.80;7.75;;;22.30;72.20;;;;;;5142579;28;20061;-68
2021/09/15 05:21:06;;;;;;;10.97;7.67;;;22.20;72.30;;;;;;5108075;28;20065;-68
2021/09/15 05:23:39;;;;;;;;;;;22.20;72.60;;;;;;5125863;28;20271;-68
2021/09/15 05:26:13;;;;;;;10.15;6.90;;;22.10;72.90;;;;;;5162757;28;19925;-68
2021/09/15 05:28:45;;;;;;;9.30;6.45;;;22.00;72.90;;;;;;5143289;28;20160;-68
2021/09/15 05:31:17;;;;;;;16.13;6.60;;;22.10;73.30;;;;;;5144316;28;20042;-69
2021/09/15 05:33:52;;;;;;;7.43;6.50;;;22.10;73.40;;;;;;5101229;28;20062;-68
2021/09/15 05:36:26;;;;;;;9.80;6.63;;;22.20;73.80;;;;;;5128814;28;20057;-68
2021/09/15 05:38:58;;;;;;;9.75;6.65;;;22.20;73.80;;;;;;5160618;28;20054;-69
2021/09/15 05:41:37;;;;;;;11.07;6.90;;;22.30;73.90;;;;;;5143290;28;20531;-68
2021/09/15 05:44:11;;;;;;;9.80;6.00;;;22.30;73.80;;;;;;5170292;28;20045;-68
2021/09/15 05:46:44;;;;;;;9.25;7.20;;;22.30;73.80;;;;;;5154683;28;20076;-68
2021/09/15 05:49:16;;;;;;;8.60;6.25;;;22.40;73.70;;;;;;5158204;28;20531;-68
2021/09/15 05:51:50;;;;;;;8.65;6.65;;;22.40;73.60;;;;;;5160632;28;20527;-67
2021/09/15 05:54:22;;;;;;;11.63;6.63;;;22.40;73.60;;;;;;5159800;28;20042;-68
2021/09/15 05:56:55;;;;;;;10.95;6.10;;;22.50;73.70;;;;;;5153803;28;20042;-68
2021/09/15 05:59:28;;;;;;;11.98;6.32;;;22.40;73.50;;;;;;5165362;28;20053;-68
2021/09/15 06:02:00;;;;;;;9.65;6.70;;;22.50;73.50;;;;;;5159923;28;20046;-67
2021/09/15 06:04:33;;;;;;;8.43;6.30;;;22.50;73.50;;;;;;5165031;28;20037;-67
2021/09/15 06:07:14;;;;;;;9.50;6.90;;;22.50;73.40;;;;;;5166898;28;20046;-67
2021/09/15 06:09:46;;;;;;;9.38;6.20;;;22.50;73.40;;;;;;5164483;28;20688;-68
2021/09/15 06:12:19;;;;;;;9.02;6.50;;;22.60;73.40;;;;;;5181225;28;20064;-68
2021/09/15 06:14:51;;;;;;;9.65;6.50;;;22.50;73.30;;;;;;5161889;28;20042;-67
2021/09/15 06:17:23;;;;;;;10.10;6.68;;;22.60;73.40;;;;;;5156226;28;20411;-67
2021/09/15 06:19:56;;;;;;;9.38;6.13;;;22.60;73.40;;;;;;5164260;28;20507;-68
2021/09/15 06:22:45;;;;;;;10.65;6.57;;;22.60;73.30;;;;;;5162403;28;20057;-68
2021/09/15 06:25:37;;;;;;;7.20;6.10;;;22.60;73.30;;;;;;5159746;28;20053;-67
2021/09/15 06:28:12;;;;;;;9.75;6.70;;;22.60;73.30;;;;;;5181255;28;20065;-68
2021/09/15 06:30:46;;;;;;;8.20;5.88;;;22.60;73.30;;;;;;5183648;28;20053;-67
2021/09/15 06:33:19;;;;;;;10.68;6.55;;;22.60;73.30;;;;;;5164207;28;20046;-68
2021/09/15 06:35:52;;;;;;;8.02;6.03;;;22.60;73.30;;;;;;5182060;28;20061;-68
2021/09/15 06:38:25;;;;;;;9.37;6.13;;;22.70;73.30;;;;;;5180071;28;20065;-67
2021/09/15 06:40:57;;;;;;;9.27;6.00;;;22.70;73.30;;;;;;5164532;28;20045;-67
2021/09/15 06:43:29;;;;;;;8.20;5.97;;;22.70;73.30;;;;;;5179441;28;20053;-68
2021/09/15 06:46:02;;;;;;;9.52;6.40;;;22.70;73.30;;;;;;5180768;28;20049;-68
2021/09/15 06:48:34;;;;;;;6.38;5.53;;;22.70;73.30;;;;;;5179304;28;20078;-67
2021/09/15 06:51:07;;;;;;;8.55;6.30;;;22.70;73.30;;;;;;5180948;28;20049;-68
2021/09/15 06:53:40;;;;;;;7.72;6.25;;;22.70;73.30;;;;;;5179357;28;20445;-67
2021/09/15 06:56:14;;;;;;;8.98;6.10;;;22.70;73.30;;;;;;5175935;28;20054;-68
2021/09/15 06:58:46;;;;;;;8.80;6.40;;;22.80;74.00;;;;;;5175396;28;20056;-67
2021/09/15 07:01:20;;;;;;;7.70;6.45;;;22.80;73.50;;;;;;5175251;28;20050;-68
2021/09/15 07:03:52;;;;;;;9.23;5.70;;;22.80;73.40;;;;;;5174986;28;20512;-68
2021/09/15 07:06:25;;;;;;;7.82;6.05;;;22.80;73.50;;;;;;5177577;28;20084;-69
2021/09/15 07:08:58;;;;;;;7.03;5.97;;;22.80;73.50;;;;;;5180535;28;20050;-70
2021/09/15 07:11:30;;;;;;;8.45;6.25;;;22.80;73.50;;;;;;5181873;28;20382;-68
2021/09/15 07:14:03;;;;;;;7.78;5.55;;;22.80;73.40;;;;;;5179085;28;20504;-68
2021/09/15 07:16:36;;;;;;;8.85;5.93;;;22.80;73.50;;;;;;5185545;28;20054;-67
2021/09/15 07:19:09;;;;;;;8.73;6.18;;;22.80;73.50;;;;;;5192999;28;20057;-67
2021/09/15 07:21:44;;;;;;;8.95;6.38;;;22.80;74.10;;;;;;5179285;28;20077;-69
2021/09/15 07:24:17;;;;;;;8.35;6.00;;;22.80;73.40;;;;;;5174144;28;20045;-68
2021/09/15 07:26:50;;;;;;;6.93;5.63;;;22.90;73.50;;;;;;5160571;28;20076;-67
2021/09/15 07:29:22;;;;;;;10.43;6.07;;;22.90;73.50;;;;;;5157861;28;20053;-68
2021/09/15 07:31:54;;;;;;;7.88;5.80;;;22.90;73.50;;;;;;5172770;28;20049;-68
2021/09/15 07:34:27;;;;;;;7.45;5.63;;;22.90;73.40;;;;;;5150714;28;20064;-68
2021/09/15 07:37:00;;;;;;;7.20;5.63;;;22.90;73.50;;;;;;5177856;28;20050;-68
2021/09/15 07:39:35;;;;;;;7.20;5.90;;;22.90;73.40;;;;;;5142174;28;20423;-68
2021/09/15 07:42:08;;;;;;;7.47;5.97;;;22.90;73.40;;;;;;5160310;28;20064;-68
2021/09/15 07:44:40;;;;;;;6.22;5.47;;;22.90;74.00;;;;;;5155054;28;20049;-68
2021/09/15 07:47:15;;;;;;;7.40;5.80;;;22.90;73.40;;;;;;5176058;28;20046;-67
2021/09/15 07:49:50;;;;;;;10.35;6.80;;;22.90;73.40;;;;;;5172046;28;20518;-68
2021/09/15 07:52:22;;;;;;;7.57;5.65;;;22.90;73.40;;;;;;5178442;28;20057;-67
2021/09/15 07:54:54;;;;;;;8.80;5.80;;;22.90;73.40;;;;;;5174085;28;20057;-68
2021/09/15 07:57:28;;;;;;;6.47;5.72;;;23.00;73.50;;;;;;5175274;28;20065;-69
2021/09/15 08:00:02;;;;;;;9.13;6.10;;;23.00;73.50;;;;;;5158986;28;20050;-67
2021/09/15 08:02:43;;;;;;;6.85;5.65;;;23.00;73.50;;;;;;5171924;28;20470;-67
2021/09/15 08:05:16;;;;;;;9.60;5.80;;;23.00;73.50;;;;;;5171928;28;20042;-67
2021/09/15 08:07:49;;;;;;;8.73;5.78;;;23.00;73.50;;;;;;5173433;28;20046;-67
2021/09/15 08:10:21;;;;;;;7.25;5.93;;;23.00;73.50;;;;;;5174097;28;20057;-68
2021/09/15 08:12:54;;;;;;;7.00;5.80;;;23.00;73.50;;;;;;5174500;28;20042;-67
2021/09/15 08:15:30;;;;;;;7.00;5.40;;;23.00;73.50;;;;;;5174715;28;20052;-68
2021/09/15 08:18:03;;;;;;;6.70;5.77;;;23.00;73.40;;;;;;5174336;28;20050;-67
2021/09/15 08:20:35;;;;;;;6.70;5.35;;;23.00;73.40;;;;;;5156378;28;20662;-67
2021/09/15 08:23:15;;;;;;;6.82;5.50;;;23.00;73.40;;;;;;5170948;28;20056;-72
2021/09/15 08:25:47;;;;;;;8.32;5.75;;;23.00;73.50;;;;;;5164376;28;20046;-71
2021/09/15 08:28:20;;;;;;;5.90;5.30;;;23.00;73.40;;;;;;5143989;28;20052;-71
2021/09/15 08:30:52;;;;;;;6.68;5.60;;;23.00;73.30;;;;;;5140485;28;20387;-70
2021/09/15 08:33:25;;;;;;;8.95;5.82;;;23.00;73.30;;;;;;5163294;28;20412;-71
2021/09/15 08:35:57;;;;;;;7.03;5.72;;;23.00;73.50;;;;;;5162911;28;20080;-70
2021/09/15 08:38:29;;;;;;;6.65;5.93;;;23.00;73.70;;;;;;5161535;28;20053;-71
2021/09/15 08:41:02;;;;;;;7.15;6.07;;;23.10;73.70;;;;;;5167947;28;20050;-71
2021/09/15 08:43:37;;;;;;;7.30;5.63;;;23.10;73.70;;;;;;5144589;28;20162;-70
2021/09/15 08:46:12;;;;;;;7.40;5.18;;;23.10;73.60;;;;;;5161498;28;20049;-70
2021/09/15 08:48:46;;;;;;;8.95;5.70;;;23.10;73.60;;;;;;5162383;28;20617;-70
2021/09/15 08:51:23;;;;;;;9.27;5.93;;;23.10;73.60;;;;;;5168189;28;20053;-71
2021/09/15 08:53:56;;;;;;;8.30;5.68;;;23.10;73.60;;;;;;5171995;28;20097;-71
2021/09/15 08:56:30;;;;;;;9.50;5.55;;;23.10;73.60;;;;;;5155597;28;20057;-71
2021/09/15 08:59:02;;;;;;;8.15;5.93;;;23.10;73.50;;;;;;5148548;28;20046;-71
2021/09/15 09:01:35;;;;;;;6.93;5.70;;;23.10;73.60;;;;;;5153448;28;20057;-71
2021/09/15 09:04:13;;;;;;;7.95;6.13;;;23.10;73.50;;;;;;5138240;28;20496;-71
2021/09/15 09:06:47;;;;;;;8.52;5.93;;;23.10;73.50;;;;;;5163096;28;20042;-71
2021/09/15 09:09:20;;;;;;;;;;;23.10;73.50;;;;;;5155442;28;20056;-71
2021/09/15 09:12:00;;;;;;;10.30;5.60;;;23.10;73.60;;;;;;5173553;28;19929;-71
2021/09/15 09:14:32;;;;;;;8.18;5.65;;;23.10;73.70;;;;;;5172708;28;20084;-71
2021/09/15 09:17:05;;;;;;;8.05;6.30;;;23.10;73.70;;;;;;5169258;28;20523;-71
2021/09/15 09:19:37;;;;;;;9.02;6.30;;;23.10;73.80;;;;;;5174086;28;20050;-70
2021/09/15 09:22:10;;;;;;;11.45;6.03;;;23.10;73.70;;;;;;5150913;28;20416;-70
2021/09/15 09:24:52;;;;;;;10.00;6.15;;;23.10;73.70;;;;;;5173941;28;20049;-71
2021/09/15 09:27:29;;;;;;;10.52;5.97;;;23.20;73.80;;;;;;5169910;28;20049;-71
2021/09/15 09:30:02;;;;;;;7.18;5.70;;;23.20;73.80;;;;;;5172117;28;20042;-71
2021/09/15 09:32:43;;;;;;;7.20;5.72;;;23.10;73.70;;;;;;5171055;28;20554;-71
2021/09/15 09:35:15;;;;;;;7.90;6.15;;;23.20;73.80;;;;;;5172957;28;20054;-70
2021/09/15 09:37:48;;;;;;;8.75;6.03;;;23.20;73.80;;;;;;5169599;28;20053;-71
2021/09/15 09:40:20;;;;;;;6.75;5.72;;;23.20;73.80;;;;;;5133400;28;20496;-70
2021/09/15 09:42:52;;;;;;;7.68;6.00;;;23.20;73.80;;;;;;5172023;28;20054;-70
2021/09/15 09:45:25;;;;;;;8.95;5.35;;;23.20;73.80;;;;;;5153921;28;20050;-70
2021/09/15 09:47:58;;;;;;;9.73;6.05;;;23.20;73.70;;;;;;5172857;28;20060;-71
2021/09/15 09:50:30;;;;;;;7.95;5.72;;;23.20;73.70;;;;;;5167535;28;20064;-70
2021/09/15 09:53:03;;;;;;;;;;;23.20;73.70;;;;;;5164205;28;20049;-71
2021/09/15 09:55:37;;;;;;;9.98;5.72;;;23.10;73.70;;;;;;5145919;28;19932;-70
2021/09/15 09:58:11;;;;;;;7.80;5.88;;;23.20;73.70;;;;;;5170119;28;20533;-70
2021/09/15 10:00:44;;;;;;;6.93;5.60;;;23.20;73.70;;;;;;5168939;28;20077;-70
2021/09/15 10:03:17;;;;;;;8.30;5.93;;;23.20;73.70;;;;;;5166922;28;20054;-71
2021/09/15 10:05:50;;;;;;;8.38;6.15;;;23.20;73.70;;;;;;5170387;28;20060;-71
2021/09/15 10:08:22;;;;;;;7.68;5.50;;;23.20;73.60;;;;;;5168092;28;20053;-71
2021/09/15 10:10:55;;;;;;;8.80;5.65;;;23.20;73.60;;;;;;5166827;28;20050;-70
2021/09/15 10:13:27;;;;;;;7.47;5.93;;;23.20;73.60;;;;;;5166737;28;20042;-71
2021/09/15 10:16:04;;;;;;;8.23;5.50;;;23.20;73.50;;;;;;5170848;28;20050;-70
2021/09/15 10:18:38;;;;;;;9.07;6.13;;;23.30;73.50;;;;;;5168288;28;20041;-70
2021/09/15 10:21:10;;;;;;;9.30;6.20;;;23.30;73.50;;;;;;5148735;28;20426;-70
2021/09/15 10:23:49;;;;;;;8.32;5.75;;;23.30;73.50;;;;;;5173846;28;20045;-70
2021/09/15 10:26:28;;;;;;;9.25;5.60;;;23.30;73.40;;;;;;5171860;28;20046;-71
2021/09/15 10:29:28;;;;;;;7.45;5.75;;;23.30;73.40;;;;;;5168289;28;20049;-72
2021/09/15 10:32:02;;;;;;;6.43;5.10;;;23.30;73.30;;;;;;5171263;28;20411;-71
2021/09/15 10:34:38;;;;;;;7.50;5.47;;;23.30;73.40;;;;;;5157926;28;20423;-70
2021/09/15 10:37:13;;;;;;;9.20;5.30;;;23.30;73.30;;;;;;5168119;28;20391;-71
2021/09/15 10:40:09;;;;;;;6.63;5.10;;;23.30;73.30;;;;;;5151899;28;20077;-70
2021/09/15 10:42:51;;;;;;;7.43;5.18;;;23.30;73.20;;;;;;5171952;28;20047;-74
2021/09/15 10:45:27;;;;;;;7.13;5.45;;;23.30;73.30;;;;;;5172740;28;20050;-73
2021/09/15 10:48:20;;;;;;;6.57;5.38;;;23.40;73.20;;;;;;5171271;28;20046;-74
2021/09/15 10:50:52;;;;;;;8.38;5.75;;;23.40;73.10;;;;;;5154348;28;20590;-74
2021/09/15 10:53:30;;;;;;;7.68;5.63;;;23.40;73.20;;;;;;5170888;28;20045;-74
2021/09/15 10:56:03;;;;;;;7.25;5.50;;;23.40;73.20;;;;;;5171382;28;20049;-72
2021/09/15 10:58:44;;;;;;;8.70;5.40;;;23.40;73.20;;;;;;5173975;28;20048;-73
2021/09/15 11:01:37;;;;;;;6.70;5.50;;;23.40;73.10;;;;;;5156536;28;20092;-74
2021/09/15 11:04:32;;;;;;;8.73;5.47;;;23.40;73.10;;;;;;5169916;28;20115;-73
2021/09/15 11:07:05;;;;;;;6.68;5.20;;;23.40;73.10;;;;;;5172386;28;20065;-74
2021/09/15 11:09:40;;;;;;;6.88;5.28;;;23.40;73.70;;;;;;5171510;28;20060;-73
2021/09/15 11:12:42;;;;;;;7.28;5.68;;;23.40;73.10;;;;;;5171502;28;20041;-74
2021/09/15 11:15:29;;;;;;;7.25;5.63;;;23.40;72.90;;;;;;5167900;28;24971;-72
2021/09/15 11:18:02;;;;;;;9.18;6.07;;;23.40;72.90;;;;;;5171546;28;20049;-74
2021/09/15 11:20:37;;;;;;;7.88;5.68;;;23.50;73.10;;;;;;5168687;28;20457;-74
2021/09/15 11:23:10;;;;;;;8.02;5.45;;;23.50;73.00;;;;;;5171779;28;20054;-73
2021/09/15 11:25:47;;;;;;;7.70;5.57;;;23.50;73.00;;;;;;5169874;28;20038;-73
2021/09/15 11:28:23;;;;;;;8.48;4.95;;;23.50;73.00;;;;;;5164430;28;20064;-74
2021/09/15 11:31:01;;;;;;;6.97;5.25;;;23.50;73.00;;;;;;5169454;28;20484;-73
2021/09/15 11:33:41;;;;;;;6.35;5.45;;;23.50;73.00;;;;;;5169306;28;20050;-73
2021/09/15 11:36:16;;;;;;;6.20;5.13;;;23.50;73.00;;;;;;5171240;28;20049;-73
2021/09/15 11:38:48;;;;;;;7.30;5.20;;;23.50;72.90;;;;;;5171797;28;20054;-73
2021/09/15 11:41:21;;;;;;;6.93;4.65;;;23.60;73.00;;;;;;5167713;28;20054;-74
2021/09/15 11:43:54;;;;;;;7.07;5.22;;;23.60;73.00;;;;;;5167093;28;20053;-74
2021/09/15 11:46:33;;;;;;;7.47;5.10;;;23.60;73.00;;;;;;5169103;28;20523;-74
2021/09/15 11:49:05;;;;;;;6.45;5.15;;;23.60;72.90;;;;;;5163830;28;20057;-73
2021/09/15 11:51:38;;;;;;;6.93;5.10;;;23.60;73.00;;;;;;5170804;28;20278;-73
2021/09/15 11:54:15;;;;;;;8.30;5.50;;;23.60;73.00;;;;;;5162565;28;20359;-79
2021/09/15 11:59:23;;;;;;;7.13;5.30;;;23.60;73.20;;;;;;5156013;28;20045;-77
2021/09/15 12:02:11;;;;;;;7.30;4.90;;;23.60;73.20;;;;;;5157017;28;20037;-77
2021/09/15 12:04:45;;;;;;;7.63;5.32;;;23.70;73.10;;;;;;5158352;28;20526;-78
2021/09/15 12:07:17;;;;;;;6.95;5.22;;;23.70;73.00;;;;;;5157903;28;20054;-78
2021/09/15 12:09:50;;;;;;;12.27;5.60;;;23.80;72.90;;;;;;5156014;28;20046;-77
2021/09/15 12:12:27;;;;;;;6.97;5.20;;;23.80;72.80;;;;;;5156153;28;20305;-78
2021/09/15 12:15:00;;;;;;;8.55;4.90;;;23.90;72.70;;;;;;5138513;28;20127;-78
2021/09/15 12:17:35;;;;;;;9.88;5.20;;;24.00;72.60;;;;;;5135233;28;20050;-78
2021/09/15 12:20:08;;;;;;;8.73;4.97;;;24.00;73.00;;;;;;5140040;28;20049;-78
2021/09/15 12:22:41;;;;;;;7.25;5.35;;;24.10;72.30;;;;;;5154006;28;20054;-78
2021/09/15 12:25:13;;;;;;;8.65;4.93;;;24.20;71.90;;;;;;5148394;28;20828;-79
2021/09/15 12:27:56;;;;;;;8.95;5.22;;;24.30;71.70;;;;;;5150846;28;20046;-79
2021/09/15 12:30:29;;;;;;;8.48;4.57;;;24.40;71.60;;;;;;5152545;28;20045;-78
2021/09/15 12:33:01;;;;;;;8.97;5.17;;;24.50;71.40;;;;;;5151544;28;20053;-78
2021/09/15 12:35:34;;;;;;;8.32;5.40;;;24.60;71.10;;;;;;5150673;28;20054;-78
2021/09/15 12:38:07;;;;;;;8.27;5.18;;;24.60;70.70;;;;;;5134147;28;20042;-79
2021/09/15 12:40:40;;;;;;;7.20;5.25;;;24.70;70.60;;;;;;5149009;28;20057;-78
2021/09/15 12:43:13;;;;;;;9.90;5.50;;;24.80;70.30;;;;;;5154888;28;20053;-78
2021/09/15 12:45:46;;;;;;;;;;;24.80;70.20;;;;;;5150606;28;20103;-78
2021/09/15 12:48:18;;;;;;;7.63;5.47;;;24.80;70.00;;;;;;5152551;28;20346;-78
2021/09/15 12:50:51;;;;;;;7.13;5.03;;;24.90;70.10;;;;;;5150762;28;20077;-79
2021/09/15 12:53:24;;;;;;;7.45;4.88;;;24.90;70.00;;;;;;5147453;28;20054;-77
2021/09/15 12:55:57;;;;;;;;;;;24.90;70.00;;;;;;5127003;28;20038;-79
2021/09/15 12:58:37;;;;;;;8.45;5.07;;;24.90;70.00;;;;;;5146683;28;19925;-78
2021/09/15 13:01:21;;;;;;;8.17;5.17;;;24.90;70.00;;;;;;5148520;28;20045;-78
2021/09/15 13:03:53;;;;;;;8.48;5.63;;;24.90;70.00;;;;;;5154369;28;20049;-79
2021/09/15 13:06:26;;;;;;;7.57;4.63;;;25.00;70.10;;;;;;5138630;28;20431;-77
2021/09/15 13:08:59;;;;;;;6.83;4.37;;;24.90;70.00;;;;;;5158086;28;20057;-78
2021/09/15 13:11:31;;;;;;;11.23;5.17;;;24.90;70.00;;;;;;5141554;28;20487;-77
2021/09/15 13:14:04;;;;;;;7.88;5.03;;;25.00;70.00;;;;;;5142626;28;20057;-78
2021/09/15 13:16:36;;;;;;;6.65;4.45;;;25.00;69.90;;;;;;5146406;28;20045;-77
2021/09/15 13:19:09;;;;;;;7.73;4.63;;;25.10;69.80;;;;;;5158511;28;20046;-78
2021/09/15 13:21:41;;;;;;;9.93;4.38;;;25.10;69.70;;;;;;5155040;28;20046;-78
2021/09/15 13:24:13;;;;;;;6.13;4.45;;;25.20;69.60;;;;;;5152010;28;22508;-78
2021/09/15 13:26:46;;;;;;;12.23;4.72;;;25.20;69.50;;;;;;5154126;28;20057;-79
2021/09/15 13:29:18;;;;;;;6.63;4.65;;;25.30;69.40;;;;;;5150777;28;20053;-78
2021/09/15 13:31:50;;;;;;;9.35;5.60;;;25.30;69.20;;;;;;5145962;28;20053;-77
2021/09/15 13:34:23;;;;;;;6.87;4.97;;;25.30;69.30;;;;;;5155164;28;20612;-78
2021/09/15 13:36:56;;;;;;;9.07;5.15;;;25.30;69.20;;;;;;5161868;28;20049;-78
2021/09/15 13:39:29;;;;;;;16.92;6.07;;;25.30;69.10;;;;;;5156737;28;20579;-78